Terminal Aerodrome Forecast
Issued by NWS Caribou, ME

Home | Current Version | Previous Version | Text Only | Print | Product List | Glossary On
Versions: 1 2 3 4 5 6 7 8 9 10 11 12 13 14 15 16 17 18 19
000
FTUS41 KCAR 260520
TAFCAR
TAF
KCAR 260520Z 2606/2706 08005KT P6SM -RA OVC050
     FM261500 05008KT P6SM -RA OVC015
     FM262300 03007KT P6SM VCSH OVC020
     FM270300 02005KT P6SM BKN020=

USA.gov is the U.S. government's official web portal to all federal, state and local government web resources and services.